Time;durP1;ratioP1;P1;durP2;ratioP2;P2;SDS_P1;SDS_P2;PMS_P1;PMS_P2;Temp;Humidity;BMP_temperature;BMP_pressure;BME280_temperature;BME280_humidity;BME280_pressure;Samples;Min_cycle;Max_cycle;Signal;HPM_P1;HPM_P2
2023/06/21 00:01:01;;;;;;;43.13;26.40;;;18.60;99.90;;;;;;5031543;28;20041;-64
2023/06/21 00:03:26;;;;;;;42.50;26.05;;;18.50;99.90;;;;;;5035498;28;20079;-64
2023/06/21 00:05:52;;;;;;;35.90;24.83;;;18.50;99.90;;;;;;5039734;28;20144;-63
2023/06/21 00:08:18;;;;;;;35.80;22.90;;;18.50;99.90;;;;;;5044402;28;20033;-63
2023/06/21 00:10:44;;;;;;;37.25;25.13;;;18.50;99.90;;;;;;5043362;28;20044;-63
2023/06/21 00:13:09;;;;;;;35.67;24.20;;;18.50;99.90;;;;;;5040668;28;20044;-64
2023/06/21 00:15:36;;;;;;;39.85;25.13;;;18.60;99.90;;;;;;5033547;28;20032;-63
2023/06/21 00:18:02;;;;;;;31.48;22.33;;;18.60;99.90;;;;;;5035041;28;20955;-64
2023/06/21 00:20:28;;;;;;;37.65;25.27;;;18.40;99.90;;;;;;5035908;28;20045;-64
2023/06/21 00:22:55;;;;;;;33.88;22.75;;;18.40;99.90;;;;;;5033131;28;20045;-64
2023/06/21 00:25:22;;;;;;;36.05;23.08;;;18.40;99.90;;;;;;5038283;28;20381;-64
2023/06/21 00:27:47;;;;;;;41.28;23.73;;;18.60;99.90;;;;;;5035858;28;20037;-63
2023/06/21 00:30:13;;;;;;;36.63;22.23;;;18.50;99.90;;;;;;5033299;28;20503;-64
2023/06/21 00:32:39;;;;;;;29.67;21.30;;;18.50;99.90;;;;;;5034799;28;20029;-63
2023/06/21 00:35:05;;;;;;;32.95;22.20;;;18.40;99.90;;;;;;5035599;28;20116;-64
2023/06/21 00:37:31;;;;;;;44.75;23.38;;;18.40;99.90;;;;;;5034208;28;20048;-64
2023/06/21 00:39:56;;;;;;;34.25;22.30;;;18.40;99.90;;;;;;5033832;28;20543;-63
2023/06/21 00:42:23;;;;;;;31.08;22.20;;;18.50;99.90;;;;;;5043204;28;20048;-64
2023/06/21 00:44:48;;;;;;;33.97;21.83;;;18.40;99.90;;;;;;5042965;28;20049;-63
2023/06/21 00:47:14;;;;;;;29.50;20.73;;;18.60;99.90;;;;;;5028395;28;20120;-64
2023/06/21 00:49:40;;;;;;;32.63;21.20;;;18.50;99.90;;;;;;5039468;28;20045;-64
2023/06/21 00:52:05;;;;;;;32.25;21.05;;;18.40;99.90;;;;;;5039139;28;20052;-64
2023/06/21 00:54:34;;;;;;;29.23;20.20;;;18.50;99.90;;;;;;5038329;28;20488;-63
2023/06/21 00:57:03;;;;;;;30.30;20.00;;;18.50;99.90;;;;;;5043823;28;20100;-63
2023/06/21 00:59:30;;;;;;;28.42;19.48;;;18.30;99.90;;;;;;5032504;28;20045;-64
2023/06/21 01:01:56;;;;;;;32.25;20.80;;;18.30;99.90;;;;;;5033360;28;20052;-63
2023/06/21 01:04:24;;;;;;;33.65;20.38;;;18.40;99.90;;;;;;5040453;28;20036;-64
2023/06/21 01:07:15;;;;;;;31.73;20.35;;;18.30;99.90;;;;;;5036146;28;20416;-64
2023/06/21 01:09:59;;;;;;;;;;;18.40;99.90;;;;;;5040416;28;20038;-63
2023/06/21 01:12:58;;;;;;;37.33;20.90;;;18.30;99.90;;;;;;5037407;28;20261;-63
2023/06/21 01:15:32;;;;;;;28.80;19.67;;;18.40;99.90;;;;;;5047337;28;20037;-63
2023/06/21 01:18:00;;;;;;;28.83;19.08;;;18.30;99.90;;;;;;5035620;28;20825;-64
2023/06/21 01:20:29;;;;;;;29.50;19.10;;;18.20;99.90;;;;;;5026299;28;20076;-64
2023/06/21 01:22:55;;;;;;;30.65;19.23;;;18.30;99.90;;;;;;5043708;28;20049;-63
2023/06/21 01:25:41;;;;;;;27.35;18.45;;;18.20;99.90;;;;;;5026065;28;20056;-63
2023/06/21 01:28:39;;;;;;;30.00;19.42;;;18.30;99.90;;;;;;5036689;28;20049;-63
2023/06/21 01:31:05;;;;;;;25.88;17.48;;;18.10;99.90;;;;;;5040787;28;20037;-63
2023/06/21 01:33:33;;;;;;;29.30;18.15;;;18.10;99.90;;;;;;5033111;28;20550;-64
2023/06/21 01:36:03;;;;;;;27.65;19.15;;;18.10;99.90;;;;;;5027666;28;20505;-64
2023/06/21 01:38:29;;;;;;;29.00;19.13;;;18.10;99.90;;;;;;5031854;28;20048;-63
2023/06/21 01:40:56;;;;;;;34.35;19.50;;;18.10;99.90;;;;;;5032031;28;20044;-63
2023/06/21 01:43:22;;;;;;;29.35;18.88;;;18.00;99.90;;;;;;5036169;28;20387;-63
2023/06/21 01:45:49;;;;;;;31.95;19.20;;;18.20;99.90;;;;;;5033380;28;20064;-64
2023/06/21 01:48:16;;;;;;;31.27;19.05;;;18.10;99.90;;;;;;5042489;28;20072;-65
2023/06/21 01:50:42;;;;;;;29.08;19.63;;;18.00;99.90;;;;;;5035686;28;20047;-64
2023/06/21 01:53:09;;;;;;;29.30;19.13;;;18.10;99.90;;;;;;5040754;28;20117;-63
2023/06/21 01:55:36;;;;;;;33.50;20.98;;;18.00;99.90;;;;;;5031878;28;20033;-64
2023/06/21 01:58:04;;;;;;;28.52;19.45;;;18.10;99.90;;;;;;5040020;28;20063;-64
2023/06/21 02:00:29;;;;;;;32.20;20.63;;;18.10;99.90;;;;;;5036081;28;20037;-64
2023/06/21 02:03:00;;;;;;;33.58;20.38;;;18.10;99.90;;;;;;5042679;28;20036;-63
2023/06/21 02:05:27;;;;;;;29.55;19.67;;;18.00;99.90;;;;;;5047765;28;20076;-64
2023/06/21 02:07:54;;;;;;;29.95;19.77;;;18.00;99.90;;;;;;5045895;28;20492;-64
2023/06/21 02:10:20;;;;;;;33.85;20.88;;;18.00;99.90;;;;;;5040058;28;20114;-63
2023/06/21 02:12:52;;;;;;;35.65;21.33;;;18.00;99.90;;;;;;5037112;28;20048;-63
2023/06/21 02:15:19;;;;;;;31.95;20.73;;;18.00;99.90;;;;;;5041538;28;20037;-64
2023/06/21 02:17:49;;;;;;;39.05;23.05;;;17.90;99.90;;;;;;5013932;28;20140;-63
2023/06/21 02:20:16;;;;;;;39.70;23.60;;;17.90;99.90;;;;;;5039204;28;20060;-64
2023/06/21 02:22:43;;;;;;;38.70;23.25;;;17.90;99.90;;;;;;5037544;28;20108;-64
2023/06/21 02:25:09;;;;;;;45.80;24.15;;;17.70;99.90;;;;;;5043688;28;20041;-64
2023/06/21 02:27:35;;;;;;;39.50;23.63;;;17.80;99.90;;;;;;5045154;28;20098;-62
2023/06/21 02:30:00;;;;;;;35.65;22.95;;;17.90;99.90;;;;;;5040146;28;20045;-64
2023/06/21 02:32:26;;;;;;;43.65;25.20;;;17.70;99.90;;;;;;5034381;28;20067;-63
2023/06/21 02:34:52;;;;;;;48.55;26.50;;;17.70;99.90;;;;;;5044689;28;20049;-64
2023/06/21 02:37:17;;;;;;;43.03;24.67;;;17.80;99.90;;;;;;5045466;28;20048;-63
2023/06/21 02:39:43;;;;;;;43.85;26.17;;;17.90;99.90;;;;;;5045134;28;20122;-64
2023/06/21 02:42:08;;;;;;;45.00;27.75;;;17.90;99.90;;;;;;5043107;28;20134;-64
2023/06/21 02:44:34;;;;;;;47.10;27.95;;;17.90;99.90;;;;;;5043616;28;20069;-64
2023/06/21 02:47:00;;;;;;;54.53;28.38;;;17.90;99.90;;;;;;5032920;28;20053;-64
2023/06/21 02:49:26;;;;;;;49.60;27.05;;;17.80;99.90;;;;;;5037191;28;20071;-64
2023/06/21 02:51:52;;;;;;;51.72;29.08;;;17.90;99.90;;;;;;5040547;28;21060;-63
2023/06/21 02:54:18;;;;;;;54.30;29.35;;;17.90;99.90;;;;;;5047436;28;20029;-63
2023/06/21 02:56:44;;;;;;;53.72;29.33;;;17.90;99.90;;;;;;5044858;28;20045;-64
2023/06/21 02:59:10;;;;;;;54.42;29.40;;;17.90;99.90;;;;;;5044472;28;20036;-65
2023/06/21 03:01:36;;;;;;;51.58;30.08;;;18.00;99.90;;;;;;5021883;28;20037;-65
2023/06/21 03:04:01;;;;;;;52.75;29.90;;;18.00;99.90;;;;;;5031601;28;20042;-64
2023/06/21 03:06:29;;;;;;;58.97;32.15;;;17.90;99.90;;;;;;5036594;28;20045;-63
2023/06/21 03:08:55;;;;;;;56.60;31.48;;;17.90;99.90;;;;;;5037256;28;20046;-64
2023/06/21 03:11:20;;;;;;;62.20;33.30;;;18.00;99.90;;;;;;5040334;28;20095;-64
2023/06/21 03:13:47;;;;;;;68.20;33.17;;;17.90;99.90;;;;;;5044292;28;20033;-63
2023/06/21 03:16:12;;;;;;;70.97;33.80;;;17.90;99.90;;;;;;5045113;28;20516;-64
2023/06/21 03:18:38;;;;;;;67.57;34.25;;;17.90;99.90;;;;;;5046736;28;20044;-64
2023/06/21 03:21:03;;;;;;;66.25;34.45;;;18.00;99.90;;;;;;5042652;28;20094;-65
2023/06/21 03:23:29;;;;;;;67.65;34.10;;;17.90;99.90;;;;;;5041795;28;20363;-63
2023/06/21 03:25:55;;;;;;;72.15;35.35;;;17.90;99.90;;;;;;5043715;28;20040;-65
2023/06/21 03:28:20;;;;;;;75.75;37.97;;;18.00;99.90;;;;;;5043039;28;20236;-65
2023/06/21 03:30:46;;;;;;;71.43;35.63;;;18.00;99.90;;;;;;5039931;28;20069;-63
2023/06/21 03:33:11;;;;;;;72.32;34.67;;;17.80;99.90;;;;;;5044731;28;20044;-64
2023/06/21 03:35:37;;;;;;;67.57;35.40;;;17.90;99.90;;;;;;5018780;28;20040;-64
2023/06/21 03:38:03;;;;;;;73.03;34.05;;;17.90;99.90;;;;;;5042005;28;20057;-64
2023/06/21 03:40:29;;;;;;;66.40;34.80;;;17.80;99.90;;;;;;5040743;28;20068;-63
2023/06/21 03:42:54;;;;;;;74.55;36.97;;;17.80;99.90;;;;;;5016417;28;20098;-63
2023/06/21 03:45:20;;;;;;;68.50;34.65;;;17.70;99.90;;;;;;5043921;28;20559;-63
2023/06/21 03:47:46;;;;;;;73.97;35.33;;;17.80;99.90;;;;;;5040372;28;20076;-63
2023/06/21 03:50:12;;;;;;;68.40;33.55;;;17.70;99.90;;;;;;5041475;28;20134;-65
2023/06/21 03:52:38;;;;;;;71.00;33.38;;;17.60;99.90;;;;;;5036199;28;20044;-64
2023/06/21 03:55:05;;;;;;;74.15;35.05;;;17.60;99.90;;;;;;5044315;28;20472;-64
2023/06/21 03:57:30;;;;;;;68.32;35.13;;;17.60;99.90;;;;;;5040505;28;20071;-64
2023/06/21 03:59:56;;;;;;;68.82;33.95;;;17.70;99.90;;;;;;5033607;28;20033;-64
2023/06/21 04:02:22;;;;;;;72.07;34.63;;;17.70;99.90;;;;;;5034389;28;20102;-64
2023/06/21 04:04:51;;;;;;;71.68;35.63;;;17.70;99.90;;;;;;5041087;28;20453;-63
2023/06/21 04:07:19;;;;;;;76.93;36.90;;;17.80;99.90;;;;;;5038416;28;20037;-64
2023/06/21 04:09:45;;;;;;;71.82;33.05;;;17.70;99.90;;;;;;5030835;28;20122;-64
2023/06/21 04:12:11;;;;;;;75.03;36.28;;;17.70;99.90;;;;;;5035129;28;20087;-65
2023/06/21 04:14:37;;;;;;;76.65;35.05;;;17.80;99.90;;;;;;5040682;28;20425;-64
2023/06/21 04:17:02;;;;;;;70.75;35.58;;;17.80;99.90;;;;;;5039245;28;20051;-65
2023/06/21 04:19:28;;;;;;;66.13;33.33;;;17.80;99.90;;;;;;5034605;28;20028;-64
2023/06/21 04:21:54;;;;;;;67.47;33.53;;;17.70;99.90;;;;;;5015032;28;20112;-64
2023/06/21 04:24:19;;;;;;;67.22;33.88;;;17.80;99.90;;;;;;5033695;28;20044;-63
2023/06/21 04:26:45;;;;;;;72.78;34.72;;;17.70;99.90;;;;;;5036062;28;20057;-63
2023/06/21 04:29:10;;;;;;;69.00;33.58;;;17.70;99.90;;;;;;5036116;28;20073;-65
2023/06/21 04:31:37;;;;;;;68.85;33.75;;;17.80;99.90;;;;;;5036058;28;20484;-64
2023/06/21 04:34:06;;;;;;;66.93;34.58;;;17.70;99.90;;;;;;5032856;28;20041;-64
2023/06/21 04:36:31;;;;;;;67.80;34.33;;;17.80;99.90;;;;;;5037720;28;20041;-65
2023/06/21 04:38:57;;;;;;;69.65;35.45;;;17.80;99.90;;;;;;5033518;28;20561;-64
2023/06/21 04:41:23;;;;;;;70.97;34.95;;;17.80;99.90;;;;;;5038827;28;20036;-64
2023/06/21 04:43:48;;;;;;;68.28;34.33;;;17.70;99.90;;;;;;5040525;28;20045;-65
2023/06/21 04:46:18;;;;;;;71.80;35.75;;;17.80;99.90;;;;;;5017046;28;20064;-64
2023/06/21 04:48:46;;;;;;;71.57;34.85;;;17.80;99.90;;;;;;5040483;28;20202;-65
2023/06/21 04:51:15;;;;;;;70.15;34.33;;;17.80;99.90;;;;;;5030892;28;20529;-64
2023/06/21 04:53:41;;;;;;;70.07;35.58;;;17.80;99.90;;;;;;5032112;28;20045;-65
2023/06/21 04:56:07;;;;;;;71.00;34.17;;;17.80;99.90;;;;;;5036982;28;20067;-64
2023/06/21 04:58:35;;;;;;;69.50;35.45;;;17.90;99.90;;;;;;5044941;28;20140;-63
2023/06/21 05:01:02;;;;;;;67.70;33.67;;;17.90;99.90;;;;;;5031991;28;20110;-64
2023/06/21 05:03:27;;;;;;;68.60;35.20;;;17.90;99.90;;;;;;5035204;28;20043;-64
2023/06/21 05:05:53;;;;;;;69.43;36.15;;;18.00;99.90;;;;;;5040509;28;20037;-63
2023/06/21 05:08:18;;;;;;;73.00;35.72;;;18.00;99.90;;;;;;5026989;28;20091;-64
2023/06/21 05:10:44;;;;;;;65.57;34.60;;;17.90;99.90;;;;;;5011712;28;20037;-64
2023/06/21 05:13:09;;;;;;;66.97;34.90;;;18.00;99.90;;;;;;5036512;28;20542;-64
2023/06/21 05:15:35;;;;;;;68.60;35.72;;;18.10;99.90;;;;;;5022809;28;20127;-64
2023/06/21 05:18:01;;;;;;;63.08;33.65;;;18.10;99.90;;;;;;5047257;28;20341;-64
2023/06/21 05:20:26;;;;;;;67.80;33.42;;;18.20;99.90;;;;;;5033875;28;20330;-65
2023/06/21 05:22:52;;;;;;;68.47;35.25;;;18.20;99.90;;;;;;5039535;28;20040;-70
2023/06/21 05:25:18;;;;;;;63.00;33.45;;;18.20;99.90;;;;;;5042162;28;20045;-64
2023/06/21 05:27:47;;;;;;;59.83;33.53;;;18.40;99.90;;;;;;5024372;28;20040;-65
2023/06/21 05:30:12;;;;;;;60.25;33.25;;;18.40;99.90;;;;;;5033422;28;20105;-64
2023/06/21 05:32:38;;;;;;;59.45;32.03;;;18.40;99.90;;;;;;5043855;28;20036;-65
2023/06/21 05:35:04;;;;;;;60.88;32.90;;;18.40;99.90;;;;;;5048126;28;20045;-64
2023/06/21 05:37:30;;;;;;;61.88;32.40;;;18.40;99.90;;;;;;5037119;28;20060;-64
2023/06/21 05:40:00;;;;;;;62.45;32.45;;;18.50;99.90;;;;;;5038206;28;20103;-65
2023/06/21 05:42:26;;;;;;;56.53;31.77;;;18.50;99.90;;;;;;5036721;28;20114;-65
2023/06/21 05:44:52;;;;;;;59.78;32.20;;;18.60;99.90;;;;;;5042267;28;20180;-64
2023/06/21 05:47:17;;;;;;;59.95;32.85;;;18.50;99.90;;;;;;5039516;28;20092;-64
2023/06/21 05:49:43;;;;;;;53.63;31.23;;;18.60;99.90;;;;;;5035981;28;20037;-64
2023/06/21 05:52:08;;;;;;;59.05;32.15;;;18.80;99.90;;;;;;5036218;28;20345;-65
2023/06/21 05:54:34;;;;;;;56.92;30.85;;;18.80;99.90;;;;;;5037745;28;20052;-64
2023/06/21 05:57:02;;;;;;;50.38;30.95;;;19.00;99.90;;;;;;5040117;28;20136;-64
2023/06/21 05:59:28;;;;;;;50.13;30.55;;;19.20;99.90;;;;;;5036385;28;20044;-64
2023/06/21 06:01:54;;;;;;;47.35;28.65;;;19.30;99.90;;;;;;5034409;28;20127;-65
2023/06/21 06:04:19;;;;;;;46.85;28.13;;;19.50;99.90;;;;;;5036432;28;20252;-65
2023/06/21 06:06:45;;;;;;;43.80;27.00;;;19.50;99.90;;;;;;5042042;28;20041;-65
2023/06/21 06:09:11;;;;;;;46.33;27.35;;;19.60;99.90;;;;;;5041181;28;20041;-65
2023/06/21 06:11:37;;;;;;;41.15;26.13;;;19.80;99.90;;;;;;5036422;28;20041;-65
2023/06/21 06:14:03;;;;;;;44.13;26.65;;;19.90;99.90;;;;;;5051133;28;20198;-65
2023/06/21 06:16:28;;;;;;;39.85;25.77;;;20.00;99.90;;;;;;5034932;28;20045;-65
2023/06/21 06:18:54;;;;;;;36.08;23.85;;;20.20;99.90;;;;;;5029949;28;20044;-66
2023/06/21 06:21:21;;;;;;;34.63;22.98;;;20.40;99.90;;;;;;5048553;28;20045;-66
2023/06/21 06:23:52;;;;;;;34.22;22.58;;;20.60;99.90;;;;;;5044263;28;20053;-66
2023/06/21 06:26:22;;;;;;;33.15;22.13;;;20.70;99.90;;;;;;5036863;28;20044;-66
2023/06/21 06:28:48;;;;;;;;;;;20.70;99.90;;;;;;5048996;28;20041;-65
2023/06/21 06:31:14;;;;;;;32.10;21.77;;;20.90;99.90;;;;;;5037687;28;19928;-65
2023/06/21 06:33:40;;;;;;;30.90;22.25;;;20.80;99.90;;;;;;5041495;28;20033;-66
2023/06/21 06:36:06;;;;;;;28.15;20.95;;;21.00;99.90;;;;;;5019488;28;20049;-65
2023/06/21 06:38:31;;;;;;;30.27;20.75;;;21.20;99.90;;;;;;5044127;28;20079;-65
2023/06/21 06:40:57;;;;;;;29.63;21.48;;;21.30;99.90;;;;;;5035580;28;20151;-65
2023/06/21 06:43:22;;;;;;;28.02;19.08;;;21.30;99.90;;;;;;5056685;28;20056;-67
2023/06/21 06:45:48;;;;;;;27.08;19.30;;;21.40;99.90;;;;;;5017089;28;20399;-66
2023/06/21 06:48:13;;;;;;;23.70;17.83;;;21.50;99.90;;;;;;5031210;28;20045;-65
2023/06/21 06:50:39;;;;;;;25.58;18.77;;;21.60;99.90;;;;;;5033202;28;20170;-65
2023/06/21 06:53:05;;;;;;;23.02;16.77;;;21.80;99.90;;;;;;5027979;28;20050;-65
2023/06/21 06:55:31;;;;;;;21.00;15.20;;;21.80;99.90;;;;;;5038092;28;20048;-65
2023/06/21 06:57:58;;;;;;;20.38;14.77;;;21.70;99.90;;;;;;5033456;28;20331;-65
2023/06/21 07:00:24;;;;;;;18.13;13.00;;;21.90;99.90;;;;;;5039101;28;20053;-64
2023/06/21 07:02:51;;;;;;;21.92;15.43;;;21.90;99.90;;;;;;5033129;28;20080;-68
2023/06/21 07:05:16;;;;;;;17.80;12.38;;;22.00;99.90;;;;;;5038219;28;20315;-64
2023/06/21 07:07:42;;;;;;;16.27;12.07;;;22.10;99.90;;;;;;5017572;28;20068;-64
2023/06/21 07:10:08;;;;;;;15.93;10.80;;;22.20;99.90;;;;;;5060241;28;20052;-64
2023/06/21 07:12:33;;;;;;;14.90;11.02;;;22.20;99.90;;;;;;5035198;28;20070;-64
2023/06/21 07:14:59;;;;;;;14.80;10.90;;;22.40;99.90;;;;;;5032915;28;20064;-65
2023/06/21 07:17:26;;;;;;;15.13;10.93;;;22.80;99.90;;;;;;5034088;28;20056;-63
2023/06/21 07:19:51;;;;;;;15.48;11.32;;;22.90;99.40;;;;;;5038761;28;20048;-63
2023/06/21 07:22:17;;;;;;;14.90;10.07;;;23.00;98.00;;;;;;5030921;28;20037;-64
2023/06/21 07:24:42;;;;;;;12.63;9.52;;;23.10;95.30;;;;;;5034291;28;20432;-63
2023/06/21 07:27:08;;;;;;;10.18;8.68;;;23.20;95.80;;;;;;5040098;28;20430;-64
2023/06/21 07:29:33;;;;;;;11.85;8.07;;;23.40;94.80;;;;;;5045622;28;20041;-63
2023/06/21 07:31:59;;;;;;;9.93;6.60;;;23.40;93.60;;;;;;5044039;28;20052;-64
2023/06/21 07:34:25;;;;;;;11.02;7.07;;;23.50;92.90;;;;;;5045401;28;20032;-66
2023/06/21 07:36:51;;;;;;;11.02;6.72;;;23.80;90.70;;;;;;5042221;28;20507;-64
2023/06/21 07:39:16;;;;;;;11.27;6.50;;;23.60;89.40;;;;;;5046305;28;20043;-63
2023/06/21 07:41:42;;;;;;;7.65;5.90;;;23.90;87.50;;;;;;5038390;28;21253;-64
2023/06/21 07:44:08;;;;;;;9.35;5.47;;;24.00;86.70;;;;;;5046483;28;20051;-64
2023/06/21 07:46:33;;;;;;;9.73;5.60;;;24.20;86.30;;;;;;5047250;28;20148;-64
2023/06/21 07:48:59;;;;;;;9.35;4.63;;;24.40;86.30;;;;;;5029769;28;20066;-64
2023/06/21 07:51:24;;;;;;;6.35;5.13;;;24.70;85.50;;;;;;5028763;28;20041;-64
2023/06/21 07:53:50;;;;;;;6.90;5.32;;;24.80;82.50;;;;;;5028526;28;20037;-63
2023/06/21 07:56:16;;;;;;;10.15;5.05;;;24.80;79.90;;;;;;5038080;28;20099;-62
2023/06/21 07:58:43;;;;;;;6.82;4.30;;;24.90;77.50;;;;;;5045138;28;20495;-63
2023/06/21 08:01:09;;;;;;;8.35;4.97;;;25.10;75.60;;;;;;5037339;28;20036;-63
2023/06/21 08:03:34;;;;;;;6.80;4.38;;;25.20;72.70;;;;;;5047063;28;20497;-64
2023/06/21 08:06:00;;;;;;;5.93;4.10;;;25.40;74.00;;;;;;5046199;28;20041;-63
2023/06/21 08:08:26;;;;;;;6.75;3.88;;;25.60;73.50;;;;;;5043357;28;20128;-63
2023/06/21 08:10:52;;;;;;;7.00;4.35;;;25.80;73.30;;;;;;5046897;28;20423;-64
2023/06/21 08:13:22;;;;;;;9.43;4.70;;;25.90;72.00;;;;;;5044237;28;20077;-64
2023/06/21 08:15:51;;;;;;;7.65;5.32;;;25.90;69.90;;;;;;5029228;28;20051;-64
2023/06/21 08:18:17;;;;;;;5.72;3.90;;;26.00;68.80;;;;;;5049087;28;20037;-64
2023/06/21 08:20:42;;;;;;;7.68;4.13;;;26.00;69.30;;;;;;5045762;28;20129;-64
2023/06/21 08:23:08;;;;;;;9.75;4.88;;;26.10;68.40;;;;;;5044501;28;20068;-64
2023/06/21 08:25:35;;;;;;;7.18;4.72;;;26.10;67.50;;;;;;5045427;28;20037;-65
2023/06/21 08:28:05;;;;;;;7.13;4.88;;;26.30;65.90;;;;;;5047788;28;20443;-63
2023/06/21 08:30:31;;;;;;;5.72;4.22;;;26.50;64.50;;;;;;5017110;28;20599;-64
2023/06/21 08:32:57;;;;;;;4.72;3.58;;;26.80;64.40;;;;;;5042494;28;20041;-63
2023/06/21 08:35:22;;;;;;;6.95;4.18;;;27.10;63.90;;;;;;5046364;28;20473;-65
2023/06/21 08:37:58;;;;;;;8.43;4.70;;;27.40;63.40;;;;;;5041719;28;20186;-64
2023/06/21 08:40:32;;;;;;;6.38;4.28;;;27.90;57.90;;;;;;5046561;28;20054;-63
2023/06/21 08:42:58;;;;;;;5.15;3.50;;;28.00;57.60;;;;;;5045222;28;20377;-64
2023/06/21 08:45:24;;;;;;;4.53;2.88;;;28.20;60.50;;;;;;5045296;28;20072;-64
2023/06/21 08:47:53;;;;;;;5.90;3.90;;;28.70;59.80;;;;;;5045359;28;20049;-64
2023/06/21 08:50:20;;;;;;;4.05;3.30;;;28.60;58.00;;;;;;5047561;28;20234;-64
2023/06/21 08:52:48;;;;;;;3.90;3.47;;;28.50;57.50;;;;;;5043129;28;20472;-66
2023/06/21 08:55:15;;;;;;;4.50;3.25;;;28.50;55.80;;;;;;5041253;28;20045;-64
2023/06/21 08:58:12;;;;;;;6.05;3.33;;;28.90;56.70;;;;;;5046715;28;20086;-63
2023/06/21 09:00:43;;;;;;;3.70;2.53;;;29.10;52.00;;;;;;5044525;28;20041;-65
2023/06/21 09:03:24;;;;;;;4.47;3.10;;;28.50;53.30;;;;;;5042516;28;20468;-64
2023/06/21 09:06:03;;;;;;;5.40;3.42;;;28.20;55.30;;;;;;5045514;28;20048;-65
2023/06/21 09:08:30;;;;;;;5.95;3.65;;;28.00;51.70;;;;;;5046888;28;20052;-66
2023/06/21 09:10:57;;;;;;;6.32;3.55;;;27.90;54.40;;;;;;5043407;28;20044;-65
2023/06/21 09:13:24;;;;;;;4.00;2.83;;;28.30;53.60;;;;;;5047412;28;20040;-65
2023/06/21 09:15:51;;;;;;;6.95;3.40;;;28.90;53.40;;;;;;5046866;28;20106;-66
2023/06/21 09:18:18;;;;;;;4.80;3.00;;;28.70;52.70;;;;;;5043137;28;20045;-65
2023/06/21 09:20:47;;;;;;;4.95;2.65;;;28.60;52.60;;;;;;5047852;28;20439;-64
2023/06/21 09:23:13;;;;;;;3.40;2.47;;;28.90;51.90;;;;;;5011629;28;20092;-64
2023/06/21 09:25:38;;;;;;;3.35;1.95;;;29.10;51.00;;;;;;5027032;28;20069;-64
2023/06/21 09:28:04;;;;;;;2.72;2.00;;;29.60;47.20;;;;;;5031753;28;20178;-65
2023/06/21 09:30:30;;;;;;;3.15;2.63;;;30.20;48.20;;;;;;5035516;28;20037;-65
2023/06/21 09:32:58;;;;;;;4.18;2.63;;;29.90;47.80;;;;;;5042311;28;20437;-65
2023/06/21 09:35:24;;;;;;;3.05;2.30;;;29.90;46.90;;;;;;5046013;28;20132;-67
2023/06/21 09:37:50;;;;;;;3.78;2.40;;;29.90;47.10;;;;;;5046570;28;20203;-65
2023/06/21 09:40:16;;;;;;;5.68;2.58;;;29.90;46.70;;;;;;5047456;28;20045;-64
2023/06/21 09:42:44;;;;;;;4.72;2.50;;;30.40;46.10;;;;;;5045890;28;20417;-65
2023/06/21 09:45:10;;;;;;;3.60;2.30;;;30.60;45.30;;;;;;5048686;28;20124;-65
2023/06/21 09:47:35;;;;;;;2.28;2.00;;;30.90;44.30;;;;;;5028449;28;20057;-66
2023/06/21 09:50:05;;;;;;;4.75;2.17;;;31.60;43.20;;;;;;5046727;28;20361;-66
2023/06/21 09:52:31;;;;;;;2.30;2.10;;;32.50;42.50;;;;;;5044421;28;20041;-65
2023/06/21 09:54:57;;;;;;;3.03;2.13;;;33.00;41.60;;;;;;5043802;28;20664;-65
2023/06/21 09:57:30;;;;;;;4.13;1.92;;;32.80;40.90;;;;;;5034254;28;20366;-65
2023/06/21 09:59:57;;;;;;;5.35;2.20;;;32.50;40.30;;;;;;5046281;28;20029;-65
2023/06/21 10:02:24;;;;;;;3.97;1.77;;;32.50;40.40;;;;;;5047012;28;20037;-65
2023/06/21 10:04:54;;;;;;;1.52;1.38;;;33.20;40.00;;;;;;5045149;28;20067;-64
2023/06/21 10:07:21;;;;;;;2.88;2.15;;;33.90;39.00;;;;;;5044233;28;20059;-64
2023/06/21 10:09:47;;;;;;;2.95;1.73;;;34.20;38.00;;;;;;5046534;28;20171;-65
2023/06/21 10:12:13;;;;;;;3.08;1.92;;;33.60;38.30;;;;;;5036864;28;20060;-65
2023/06/21 10:14:40;;;;;;;2.15;1.67;;;32.40;39.10;;;;;;5027153;28;20049;-64
2023/06/21 10:17:07;;;;;;;3.75;2.10;;;32.20;39.70;;;;;;5045670;28;20512;-64
2023/06/21 10:19:33;;;;;;;3.92;2.00;;;32.30;39.10;;;;;;5049288;28;20041;-65
2023/06/21 10:22:05;;;;;;;2.90;1.65;;;32.90;38.70;;;;;;5047771;28;20060;-65
2023/06/21 10:24:42;;;;;;;1.58;1.33;;;33.20;37.30;;;;;;5042194;28;20473;-65
2023/06/21 10:27:08;;;;;;;3.35;2.25;;;33.70;38.30;;;;;;5047406;28;20080;-66
2023/06/21 10:29:34;;;;;;;2.95;1.50;;;34.30;35.80;;;;;;5042969;28;20037;-65
2023/06/21 10:32:03;;;;;;;3.28;2.20;;;35.00;35.20;;;;;;5043884;28;20511;-65
2023/06/21 10:34:45;;;;;;;3.17;1.85;;;35.30;34.30;;;;;;5032480;28;20045;-64
2023/06/21 10:37:21;;;;;;;2.28;1.80;;;35.60;35.60;;;;;;5036994;28;20052;-65
2023/06/21 10:39:51;;;;;;;2.67;1.83;;;35.20;35.40;;;;;;5047298;28;20099;-66
2023/06/21 10:42:17;;;;;;;2.67;2.00;;;35.00;35.10;;;;;;5049185;28;20148;-64
2023/06/21 10:44:43;;;;;;;2.80;2.10;;;34.70;34.10;;;;;;5043140;28;20038;-65
2023/06/21 10:47:09;;;;;;;2.50;1.95;;;34.10;34.30;;;;;;5034773;28;20097;-65
2023/06/21 10:49:35;;;;;;;2.75;2.17;;;33.50;34.70;;;;;;5050284;28;20044;-65
2023/06/21 10:52:02;;;;;;;2.15;1.95;;;32.70;35.50;;;;;;5046283;28;20056;-64
2023/06/21 10:54:28;;;;;;;3.33;1.60;;;32.00;36.90;;;;;;5048360;28;20087;-65
2023/06/21 10:56:54;;;;;;;3.53;1.70;;;32.10;37.80;;;;;;5041751;28;20060;-64
2023/06/21 10:59:23;;;;;;;2.88;1.40;;;32.20;38.00;;;;;;5047825;28;20072;-64
2023/06/21 11:01:49;;;;;;;3.28;1.70;;;31.80;38.10;;;;;;5032956;28;20842;-63
2023/06/21 11:04:15;;;;;;;1.98;1.63;;;30.70;38.50;;;;;;5047603;28;20199;-64
2023/06/21 11:06:41;;;;;;;1.80;1.50;;;29.80;39.30;;;;;;5028385;28;20045;-64
2023/06/21 11:09:11;;;;;;;2.13;1.40;;;28.90;40.20;;;;;;5030447;28;20037;-65
2023/06/21 11:11:40;;;;;;;1.70;1.45;;;28.70;41.30;;;;;;5036897;28;20434;-64
2023/06/21 11:14:06;;;;;;;1.90;1.50;;;28.90;41.90;;;;;;5042702;28;20033;-65
2023/06/21 11:16:39;;;;;;;2.88;1.60;;;29.00;42.00;;;;;;5044559;28;20037;-62
2023/06/21 11:19:08;;;;;;;2.08;1.70;;;28.80;41.60;;;;;;5040805;28;20089;-63
2023/06/21 11:21:48;;;;;;;1.85;1.30;;;28.50;41.90;;;;;;5034469;28;20060;-64
2023/06/21 11:24:17;;;;;;;;;;;28.30;43.30;;;;;;5034483;28;20174;-65
2023/06/21 11:27:06;;;;;;;3.10;1.80;;;28.20;43.50;;;;;;5038241;28;19936;-64
2023/06/21 11:29:35;;;;;;;3.17;1.92;;;28.50;43.80;;;;;;5042429;28;20672;-64
2023/06/21 11:32:08;;;;;;;3.83;2.28;;;28.60;42.80;;;;;;5035625;28;20082;-63
2023/06/21 11:34:33;;;;;;;2.78;1.73;;;28.60;42.00;;;;;;5043272;28;20025;-63
2023/06/21 11:37:41;;;;;;;2.42;1.83;;;28.50;42.40;;;;;;5046530;28;20051;-63
2023/06/21 11:40:08;;;;;;;2.42;1.98;;;28.70;41.00;;;;;;5037229;28;20071;-65
2023/06/21 11:42:42;;;;;;;2.53;1.63;;;28.80;41.60;;;;;;5040774;28;20112;-63
2023/06/21 11:45:32;;;;;;;3.33;1.55;;;29.00;42.60;;;;;;5048911;28;20049;-63
2023/06/21 11:48:04;;;;;;;;;;;29.10;39.50;;;;;;5044033;28;20060;-62
2023/06/21 11:50:42;;;;;;;3.35;1.58;;;29.00;42.00;;;;;;5045344;28;19986;-64
2023/06/21 11:53:23;;;;;;;2.60;1.70;;;28.80;41.50;;;;;;5041885;28;20033;-66
2023/06/21 11:56:01;;;;;;;2.53;1.75;;;29.00;41.10;;;;;;5035026;28;20040;-63
2023/06/21 11:58:27;;;;;;;2.78;1.50;;;29.20;38.70;;;;;;5039155;28;20126;-65
2023/06/21 12:00:53;;;;;;;2.65;1.77;;;29.20;40.40;;;;;;5033934;28;20037;-64
2023/06/21 12:03:26;;;;;;;3.28;1.80;;;29.00;40.70;;;;;;5042329;28;20109;-63
2023/06/21 12:05:58;;;;;;;4.13;1.80;;;28.60;40.90;;;;;;5045364;28;20045;-64
2023/06/21 12:08:43;;;;;;;3.30;1.73;;;28.40;41.30;;;;;;5046301;28;20037;-63
2023/06/21 12:11:10;;;;;;;4.55;1.90;;;28.50;42.60;;;;;;5060987;28;20470;-64
2023/06/21 12:13:37;;;;;;;3.38;1.52;;;28.40;41.80;;;;;;5036518;28;20072;-64
2023/06/21 12:16:05;;;;;;;2.20;1.98;;;28.20;42.10;;;;;;5041687;28;20140;-64
2023/06/21 12:18:32;;;;;;;2.22;1.42;;;28.00;41.90;;;;;;5048826;28;20589;-65
2023/06/21 12:21:00;;;;;;;3.65;1.50;;;28.00;42.10;;;;;;5033404;28;20117;-62
2023/06/21 12:23:28;;;;;;;3.05;1.55;;;28.00;42.40;;;;;;5037287;28;20037;-64
2023/06/21 12:26:00;;;;;;;3.53;1.73;;;27.90;42.60;;;;;;5039314;28;20378;-62
2023/06/21 12:28:26;;;;;;;2.03;1.60;;;27.70;42.70;;;;;;5039058;28;20119;-62
2023/06/21 12:31:00;;;;;;;1.85;1.50;;;27.60;43.30;;;;;;5036105;28;20080;-63
2023/06/21 12:33:28;;;;;;;1.83;1.30;;;27.60;43.70;;;;;;5036622;28;20040;-63
2023/06/21 12:36:20;;;;;;;2.95;1.92;;;28.90;43.20;;;;;;5033121;28;20126;-63
2023/06/21 12:38:51;;;;;;;2.50;1.50;;;29.60;42.40;;;;;;5043906;28;20473;-63